sensor_id;sensor_type;location;lat;lon;timestamp;P1;durP1;ratioP1;P2;durP2;ratioP2
43664;SDS011;29263;48.172;11.484;2024-03-02T00:01:07;9.00;;;6.17;;
43664;SDS011;29263;48.172;11.484;2024-03-02T00:03:36;9.20;;;6.00;;
43664;SDS011;29263;48.172;11.484;2024-03-02T00:06:02;7.47;;;5.10;;
43664;SDS011;29263;48.172;11.484;2024-03-02T00:08:28;8.07;;;5.50;;
43664;SDS011;29263;48.172;11.484;2024-03-02T00:10:58;8.57;;;5.60;;
43664;SDS011;29263;48.172;11.484;2024-03-02T00:13:25;8.63;;;6.13;;
43664;SDS011;29263;48.172;11.484;2024-03-02T00:15:54;9.40;;;6.10;;
43664;SDS011;29263;48.172;11.484;2024-03-02T00:18:24;7.53;;;5.83;;
43664;SDS011;29263;48.172;11.484;2024-03-02T00:20:56;8.80;;;6.00;;
43664;SDS011;29263;48.172;11.484;2024-03-02T00:23:22;7.83;;;5.70;;
43664;SDS011;29263;48.172;11.484;2024-03-02T00:25:49;7.43;;;5.50;;
43664;SDS011;29263;48.172;11.484;2024-03-02T00:28:22;10.70;;;5.82;;
43664;SDS011;29263;48.172;11.484;2024-03-02T00:33:39;8.73;;;5.97;;
43664;SDS011;29263;48.172;11.484;2024-03-02T00:36:06;7.55;;;5.30;;
43664;SDS011;29263;48.172;11.484;2024-03-02T00:38:33;8.63;;;5.50;;
43664;SDS011;29263;48.172;11.484;2024-03-02T00:41:00;8.90;;;5.47;;
43664;SDS011;29263;48.172;11.484;2024-03-02T00:43:39;8.00;;;5.83;;
43664;SDS011;29263;48.172;11.484;2024-03-02T00:46:12;8.13;;;5.47;;
43664;SDS011;29263;48.172;11.484;2024-03-02T00:48:47;6.80;;;5.03;;
43664;SDS011;29263;48.172;11.484;2024-03-02T00:51:19;10.00;;;5.83;;
43664;SDS011;29263;48.172;11.484;2024-03-02T00:53:49;6.93;;;5.50;;
43664;SDS011;29263;48.172;11.484;2024-03-02T00:56:17;8.77;;;5.83;;
43664;SDS011;29263;48.172;11.484;2024-03-02T00:58:43;10.67;;;6.73;;
43664;SDS011;29263;48.172;11.484;2024-03-02T01:01:08;8.17;;;5.77;;
43664;SDS011;29263;48.172;11.484;2024-03-02T01:03:34;8.87;;;6.03;;
43664;SDS011;29263;48.172;11.484;2024-03-02T01:06:00;9.47;;;6.40;;
43664;SDS011;29263;48.172;11.484;2024-03-02T01:08:26;10.43;;;5.90;;
43664;SDS011;29263;48.172;11.484;2024-03-02T01:10:51;9.93;;;6.23;;
43664;SDS011;29263;48.172;11.484;2024-03-02T01:13:17;10.37;;;6.13;;
43664;SDS011;29263;48.172;11.484;2024-03-02T01:15:43;9.03;;;5.50;;
43664;SDS011;29263;48.172;11.484;2024-03-02T01:18:09;7.97;;;6.27;;
43664;SDS011;29263;48.172;11.484;2024-03-02T01:20:34;10.50;;;6.57;;
43664;SDS011;29263;48.172;11.484;2024-03-02T01:23:00;9.13;;;6.17;;
43664;SDS011;29263;48.172;11.484;2024-03-02T01:25:26;8.93;;;6.40;;
43664;SDS011;29263;48.172;11.484;2024-03-02T01:27:51;9.27;;;6.43;;
43664;SDS011;29263;48.172;11.484;2024-03-02T01:30:17;8.40;;;5.50;;
43664;SDS011;29263;48.172;11.484;2024-03-02T01:32:42;8.37;;;5.37;;
43664;SDS011;29263;48.172;11.484;2024-03-02T01:35:08;10.07;;;5.87;;
43664;SDS011;29263;48.172;11.484;2024-03-02T01:37:34;8.20;;;5.63;;
43664;SDS011;29263;48.172;11.484;2024-03-02T01:40:00;7.40;;;5.67;;
43664;SDS011;29263;48.172;11.484;2024-03-02T01:42:25;8.27;;;5.37;;
43664;SDS011;29263;48.172;11.484;2024-03-02T01:44:51;9.27;;;5.87;;
43664;SDS011;29263;48.172;11.484;2024-03-02T01:47:17;8.63;;;5.90;;
43664;SDS011;29263;48.172;11.484;2024-03-02T01:49:43;8.57;;;6.20;;
43664;SDS011;29263;48.172;11.484;2024-03-02T01:52:08;9.77;;;6.03;;
43664;SDS011;29263;48.172;11.484;2024-03-02T01:54:34;9.80;;;5.43;;
43664;SDS011;29263;48.172;11.484;2024-03-02T01:56:59;7.90;;;5.60;;
43664;SDS011;29263;48.172;11.484;2024-03-02T01:59:25;8.50;;;5.87;;
43664;SDS011;29263;48.172;11.484;2024-03-02T02:01:51;7.57;;;5.33;;
43664;SDS011;29263;48.172;11.484;2024-03-02T02:04:17;7.93;;;5.77;;
43664;SDS011;29263;48.172;11.484;2024-03-02T02:06:43;8.90;;;6.37;;
43664;SDS011;29263;48.172;11.484;2024-03-02T02:09:09;8.30;;;5.67;;
43664;SDS011;29263;48.172;11.484;2024-03-02T02:11:35;7.70;;;5.77;;
43664;SDS011;29263;48.172;11.484;2024-03-02T02:14:01;8.90;;;6.10;;
43664;SDS011;29263;48.172;11.484;2024-03-02T02:16:26;8.00;;;5.80;;
43664;SDS011;29263;48.172;11.484;2024-03-02T02:18:52;8.60;;;6.40;;
43664;SDS011;29263;48.172;11.484;2024-03-02T02:21:17;7.60;;;5.50;;
43664;SDS011;29263;48.172;11.484;2024-03-02T02:26:13;9.77;;;6.60;;
43664;SDS011;29263;48.172;11.484;2024-03-02T02:28:39;9.13;;;6.27;;
43664;SDS011;29263;48.172;11.484;2024-03-02T02:31:11;9.27;;;6.47;;
43664;SDS011;29263;48.172;11.484;2024-03-02T02:33:40;10.20;;;6.20;;
43664;SDS011;29263;48.172;11.484;2024-03-02T02:36:06;8.73;;;6.40;;
43664;SDS011;29263;48.172;11.484;2024-03-02T02:38:32;10.43;;;6.13;;
43664;SDS011;29263;48.172;11.484;2024-03-02T02:41:01;9.17;;;6.20;;
43664;SDS011;29263;48.172;11.484;2024-03-02T02:43:27;9.60;;;6.27;;
43664;SDS011;29263;48.172;11.484;2024-03-02T02:45:53;9.33;;;6.47;;
43664;SDS011;29263;48.172;11.484;2024-03-02T02:48:18;10.80;;;7.17;;
43664;SDS011;29263;48.172;11.484;2024-03-02T02:50:44;8.77;;;6.50;;
43664;SDS011;29263;48.172;11.484;2024-03-02T02:53:09;10.40;;;6.93;;
43664;SDS011;29263;48.172;11.484;2024-03-02T02:55:35;9.37;;;6.63;;
43664;SDS011;29263;48.172;11.484;2024-03-02T02:58:05;7.77;;;5.93;;
43664;SDS011;29263;48.172;11.484;2024-03-02T03:00:31;8.90;;;6.50;;
43664;SDS011;29263;48.172;11.484;2024-03-02T03:02:57;10.20;;;6.37;;
43664;SDS011;29263;48.172;11.484;2024-03-02T03:05:22;8.77;;;6.60;;
43664;SDS011;29263;48.172;11.484;2024-03-02T03:07:48;9.70;;;6.50;;
43664;SDS011;29263;48.172;11.484;2024-03-02T03:10:15;9.37;;;6.33;;
43664;SDS011;29263;48.172;11.484;2024-03-02T03:12:41;10.67;;;6.47;;
43664;SDS011;29263;48.172;11.484;2024-03-02T03:15:08;9.07;;;6.47;;
43664;SDS011;29263;48.172;11.484;2024-03-02T03:17:34;7.10;;;5.90;;
43664;SDS011;29263;48.172;11.484;2024-03-02T03:20:01;9.17;;;6.37;;
43664;SDS011;29263;48.172;11.484;2024-03-02T03:22:27;9.20;;;6.43;;
43664;SDS011;29263;48.172;11.484;2024-03-02T03:24:53;8.17;;;5.80;;
43664;SDS011;29263;48.172;11.484;2024-03-02T03:27:18;9.07;;;6.70;;
43664;SDS011;29263;48.172;11.484;2024-03-02T03:29:44;9.10;;;6.57;;
43664;SDS011;29263;48.172;11.484;2024-03-02T03:32:10;8.60;;;6.20;;
43664;SDS011;29263;48.172;11.484;2024-03-02T03:34:36;10.53;;;6.47;;
43664;SDS011;29263;48.172;11.484;2024-03-02T03:37:02;8.70;;;6.63;;
43664;SDS011;29263;48.172;11.484;2024-03-02T03:39:28;9.20;;;6.70;;
43664;SDS011;29263;48.172;11.484;2024-03-02T03:41:54;9.27;;;6.87;;
43664;SDS011;29263;48.172;11.484;2024-03-02T03:44:19;9.60;;;6.70;;
43664;SDS011;29263;48.172;11.484;2024-03-02T03:46:45;10.23;;;7.30;;
43664;SDS011;29263;48.172;11.484;2024-03-02T03:49:11;8.30;;;6.10;;
43664;SDS011;29263;48.172;11.484;2024-03-02T03:51:36;11.50;;;6.97;;
43664;SDS011;29263;48.172;11.484;2024-03-02T03:54:02;9.30;;;6.30;;
43664;SDS011;29263;48.172;11.484;2024-03-02T03:56:27;12.77;;;8.23;;
43664;SDS011;29263;48.172;11.484;2024-03-02T03:58:53;9.13;;;6.77;;
43664;SDS011;29263;48.172;11.484;2024-03-02T04:01:19;10.13;;;6.67;;
43664;SDS011;29263;48.172;11.484;2024-03-02T04:03:44;9.37;;;6.63;;
43664;SDS011;29263;48.172;11.484;2024-03-02T04:06:10;11.37;;;7.57;;
43664;SDS011;29263;48.172;11.484;2024-03-02T04:08:35;11.90;;;7.30;;
43664;SDS011;29263;48.172;11.484;2024-03-02T04:11:01;11.33;;;7.20;;
43664;SDS011;29263;48.172;11.484;2024-03-02T04:13:28;9.07;;;6.53;;
43664;SDS011;29263;48.172;11.484;2024-03-02T04:15:53;9.03;;;6.90;;
43664;SDS011;29263;48.172;11.484;2024-03-02T04:18:19;9.57;;;6.63;;
43664;SDS011;29263;48.172;11.484;2024-03-02T04:20:44;10.60;;;6.90;;
43664;SDS011;29263;48.172;11.484;2024-03-02T04:23:10;11.37;;;7.50;;
43664;SDS011;29263;48.172;11.484;2024-03-02T04:25:36;9.83;;;6.70;;
43664;SDS011;29263;48.172;11.484;2024-03-02T04:28:01;11.60;;;7.30;;
43664;SDS011;29263;48.172;11.484;2024-03-02T04:30:27;10.63;;;7.67;;
43664;SDS011;29263;48.172;11.484;2024-03-02T04:32:53;11.90;;;8.23;;
43664;SDS011;29263;48.172;11.484;2024-03-02T04:35:18;10.77;;;6.60;;
43664;SDS011;29263;48.172;11.484;2024-03-02T04:37:44;10.90;;;6.77;;
43664;SDS011;29263;48.172;11.484;2024-03-02T04:40:10;11.93;;;8.03;;
43664;SDS011;29263;48.172;11.484;2024-03-02T04:42:35;10.17;;;6.93;;
43664;SDS011;29263;48.172;11.484;2024-03-02T04:45:01;11.80;;;7.77;;
43664;SDS011;29263;48.172;11.484;2024-03-02T04:47:28;10.47;;;6.63;;
43664;SDS011;29263;48.172;11.484;2024-03-02T04:49:53;8.67;;;6.33;;
43664;SDS011;29263;48.172;11.484;2024-03-02T04:52:19;10.87;;;7.23;;
43664;SDS011;29263;48.172;11.484;2024-03-02T04:54:44;10.80;;;6.90;;
43664;SDS011;29263;48.172;11.484;2024-03-02T04:57:28;11.10;;;7.03;;
43664;SDS011;29263;48.172;11.484;2024-03-02T04:59:54;10.77;;;6.53;;
43664;SDS011;29263;48.172;11.484;2024-03-02T05:02:19;10.20;;;7.17;;
43664;SDS011;29263;48.172;11.484;2024-03-02T05:04:45;11.53;;;6.80;;
43664;SDS011;29263;48.172;11.484;2024-03-02T05:07:11;12.07;;;7.50;;
43664;SDS011;29263;48.172;11.484;2024-03-02T05:09:36;9.77;;;6.77;;
43664;SDS011;29263;48.172;11.484;2024-03-02T05:12:02;10.57;;;7.07;;
43664;SDS011;29263;48.172;11.484;2024-03-02T05:14:48;11.47;;;7.07;;
43664;SDS011;29263;48.172;11.484;2024-03-02T05:17:14;10.40;;;6.87;;
43664;SDS011;29263;48.172;11.484;2024-03-02T05:19:39;9.67;;;6.63;;
43664;SDS011;29263;48.172;11.484;2024-03-02T05:22:05;10.77;;;7.37;;
43664;SDS011;29263;48.172;11.484;2024-03-02T05:24:30;11.60;;;7.10;;
43664;SDS011;29263;48.172;11.484;2024-03-02T05:26:56;11.97;;;7.63;;
43664;SDS011;29263;48.172;11.484;2024-03-02T05:29:22;9.60;;;6.40;;
43664;SDS011;29263;48.172;11.484;2024-03-02T05:31:48;9.27;;;6.43;;
43664;SDS011;29263;48.172;11.484;2024-03-02T05:34:13;9.73;;;7.00;;
43664;SDS011;29263;48.172;11.484;2024-03-02T05:36:39;10.10;;;6.17;;
43664;SDS011;29263;48.172;11.484;2024-03-02T05:39:05;9.90;;;6.93;;
43664;SDS011;29263;48.172;11.484;2024-03-02T05:41:34;9.27;;;6.32;;
43664;SDS011;29263;48.172;11.484;2024-03-02T05:44:00;9.83;;;5.97;;
43664;SDS011;29263;48.172;11.484;2024-03-02T05:46:26;11.70;;;7.73;;
43664;SDS011;29263;48.172;11.484;2024-03-02T05:48:52;10.80;;;6.70;;
43664;SDS011;29263;48.172;11.484;2024-03-02T05:51:17;11.90;;;7.33;;
43664;SDS011;29263;48.172;11.484;2024-03-02T05:53:43;8.87;;;6.00;;
43664;SDS011;29263;48.172;11.484;2024-03-02T05:56:09;10.77;;;7.00;;
43664;SDS011;29263;48.172;11.484;2024-03-02T05:58:34;9.63;;;7.27;;
43664;SDS011;29263;48.172;11.484;2024-03-02T06:01:18;13.73;;;7.20;;
43664;SDS011;29263;48.172;11.484;2024-03-02T06:03:44;10.60;;;6.90;;
43664;SDS011;29263;48.172;11.484;2024-03-02T06:06:10;9.37;;;7.03;;
43664;SDS011;29263;48.172;11.484;2024-03-02T06:08:36;10.67;;;7.10;;
43664;SDS011;29263;48.172;11.484;2024-03-02T06:11:01;10.43;;;6.63;;
43664;SDS011;29263;48.172;11.484;2024-03-02T06:13:27;9.17;;;6.30;;
43664;SDS011;29263;48.172;11.484;2024-03-02T06:15:53;10.50;;;6.77;;
43664;SDS011;29263;48.172;11.484;2024-03-02T06:18:18;11.63;;;6.80;;
43664;SDS011;29263;48.172;11.484;2024-03-02T06:20:44;10.37;;;6.43;;
43664;SDS011;29263;48.172;11.484;2024-03-02T06:23:09;9.33;;;6.50;;
43664;SDS011;29263;48.172;11.484;2024-03-02T06:25:35;9.27;;;6.57;;
43664;SDS011;29263;48.172;11.484;2024-03-02T06:28:01;11.67;;;7.20;;
43664;SDS011;29263;48.172;11.484;2024-03-02T06:30:27;11.07;;;7.70;;
43664;SDS011;29263;48.172;11.484;2024-03-02T06:32:53;10.70;;;7.47;;
43664;SDS011;29263;48.172;11.484;2024-03-02T06:35:19;10.97;;;7.20;;
43664;SDS011;29263;48.172;11.484;2024-03-02T06:37:44;9.77;;;6.87;;
43664;SDS011;29263;48.172;11.484;2024-03-02T06:40:10;10.47;;;6.87;;
43664;SDS011;29263;48.172;11.484;2024-03-02T06:42:36;9.53;;;6.27;;
43664;SDS011;29263;48.172;11.484;2024-03-02T06:45:02;11.80;;;6.63;;
43664;SDS011;29263;48.172;11.484;2024-03-02T06:47:28;10.63;;;7.00;;
43664;SDS011;29263;48.172;11.484;2024-03-02T06:49:53;12.47;;;7.70;;
43664;SDS011;29263;48.172;11.484;2024-03-02T06:52:19;12.53;;;7.20;;
43664;SDS011;29263;48.172;11.484;2024-03-02T06:54:46;11.47;;;7.60;;
43664;SDS011;29263;48.172;11.484;2024-03-02T06:57:11;12.50;;;7.90;;
43664;SDS011;29263;48.172;11.484;2024-03-02T06:59:37;11.77;;;6.73;;
43664;SDS011;29263;48.172;11.484;2024-03-02T07:02:03;9.73;;;6.57;;
43664;SDS011;29263;48.172;11.484;2024-03-02T07:04:29;9.93;;;7.07;;
43664;SDS011;29263;48.172;11.484;2024-03-02T07:06:54;11.33;;;7.70;;
43664;SDS011;29263;48.172;11.484;2024-03-02T07:09:20;9.83;;;6.40;;
43664;SDS011;29263;48.172;11.484;2024-03-02T07:11:48;9.57;;;6.10;;
43664;SDS011;29263;48.172;11.484;2024-03-02T07:14:13;11.10;;;6.50;;
43664;SDS011;29263;48.172;11.484;2024-03-02T07:16:39;12.23;;;7.40;;
43664;SDS011;29263;48.172;11.484;2024-03-02T07:19:05;11.97;;;7.87;;
43664;SDS011;29263;48.172;11.484;2024-03-02T07:21:31;10.90;;;7.47;;
43664;SDS011;29263;48.172;11.484;2024-03-02T07:23:58;11.43;;;6.70;;
43664;SDS011;29263;48.172;11.484;2024-03-02T07:26:24;11.63;;;7.57;;
43664;SDS011;29263;48.172;11.484;2024-03-02T07:28:50;10.87;;;6.57;;
43664;SDS011;29263;48.172;11.484;2024-03-02T07:31:16;13.20;;;7.70;;
43664;SDS011;29263;48.172;11.484;2024-03-02T07:33:43;11.67;;;7.23;;
43664;SDS011;29263;48.172;11.484;2024-03-02T07:36:10;11.17;;;6.80;;
43664;SDS011;29263;48.172;11.484;2024-03-02T07:38:35;12.43;;;8.00;;
43664;SDS011;29263;48.172;11.484;2024-03-02T07:41:01;12.73;;;7.97;;
43664;SDS011;29263;48.172;11.484;2024-03-02T07:43:29;12.00;;;8.23;;
43664;SDS011;29263;48.172;11.484;2024-03-02T07:45:56;14.40;;;8.83;;
43664;SDS011;29263;48.172;11.484;2024-03-02T07:48:22;12.47;;;8.23;;
43664;SDS011;29263;48.172;11.484;2024-03-02T07:50:47;11.20;;;7.43;;
43664;SDS011;29263;48.172;11.484;2024-03-02T07:53:13;12.50;;;8.17;;
43664;SDS011;29263;48.172;11.484;2024-03-02T07:55:39;14.70;;;8.10;;
43664;SDS011;29263;48.172;11.484;2024-03-02T07:58:05;15.77;;;9.70;;
43664;SDS011;29263;48.172;11.484;2024-03-02T08:00:31;15.40;;;9.67;;
43664;SDS011;29263;48.172;11.484;2024-03-02T08:02:57;18.67;;;10.93;;
43664;SDS011;29263;48.172;11.484;2024-03-02T08:05:23;17.27;;;11.17;;
43664;SDS011;29263;48.172;11.484;2024-03-02T08:07:48;18.83;;;11.37;;
43664;SDS011;29263;48.172;11.484;2024-03-02T08:10:17;18.05;;;10.73;;
43664;SDS011;29263;48.172;11.484;2024-03-02T08:12:44;16.13;;;9.93;;
43664;SDS011;29263;48.172;11.484;2024-03-02T08:15:09;17.50;;;10.80;;
43664;SDS011;29263;48.172;11.484;2024-03-02T08:17:35;19.30;;;10.70;;
43664;SDS011;29263;48.172;11.484;2024-03-02T08:20:00;18.17;;;10.93;;
43664;SDS011;29263;48.172;11.484;2024-03-02T08:22:27;18.27;;;11.43;;
43664;SDS011;29263;48.172;11.484;2024-03-02T08:24:53;12.90;;;9.00;;
43664;SDS011;29263;48.172;11.484;2024-03-02T08:27:19;17.37;;;10.23;;
43664;SDS011;29263;48.172;11.484;2024-03-02T08:29:45;14.83;;;9.43;;
43664;SDS011;29263;48.172;11.484;2024-03-02T08:32:10;17.70;;;10.00;;
43664;SDS011;29263;48.172;11.484;2024-03-02T08:34:36;16.83;;;9.10;;
43664;SDS011;29263;48.172;11.484;2024-03-02T08:37:02;15.67;;;10.23;;
43664;SDS011;29263;48.172;11.484;2024-03-02T08:39:28;16.17;;;9.20;;
43664;SDS011;29263;48.172;11.484;2024-03-02T08:41:54;15.47;;;8.67;;
43664;SDS011;29263;48.172;11.484;2024-03-02T08:44:19;14.43;;;8.63;;
43664;SDS011;29263;48.172;11.484;2024-03-02T08:46:45;15.63;;;9.23;;
43664;SDS011;29263;48.172;11.484;2024-03-02T08:49:11;13.83;;;8.30;;
43664;SDS011;29263;48.172;11.484;2024-03-02T08:51:37;13.53;;;8.50;;
43664;SDS011;29263;48.172;11.484;2024-03-02T08:54:03;14.90;;;8.60;;
43664;SDS011;29263;48.172;11.484;2024-03-02T08:56:29;11.07;;;8.40;;
43664;SDS011;29263;48.172;11.484;2024-03-02T08:58:56;13.40;;;8.40;;
43664;SDS011;29263;48.172;11.484;2024-03-02T09:01:21;16.00;;;9.07;;
43664;SDS011;29263;48.172;11.484;2024-03-02T09:03:47;14.63;;;8.60;;
43664;SDS011;29263;48.172;11.484;2024-03-02T09:06:16;13.68;;;9.27;;
43664;SDS011;29263;48.172;11.484;2024-03-02T09:08:42;12.17;;;8.30;;
43664;SDS011;29263;48.172;11.484;2024-03-02T09:11:09;13.37;;;9.03;;
43664;SDS011;29263;48.172;11.484;2024-03-02T09:13:38;10.30;;;7.43;;
43664;SDS011;29263;48.172;11.484;2024-03-02T09:16:04;13.50;;;8.10;;
43664;SDS011;29263;48.172;11.484;2024-03-02T09:18:30;11.80;;;7.37;;
43664;SDS011;29263;48.172;11.484;2024-03-02T09:20:56;10.37;;;7.57;;
43664;SDS011;29263;48.172;11.484;2024-03-02T09:23:21;11.47;;;7.67;;
43664;SDS011;29263;48.172;11.484;2024-03-02T09:25:47;11.97;;;8.10;;
43664;SDS011;29263;48.172;11.484;2024-03-02T09:28:15;13.00;;;8.53;;
43664;SDS011;29263;48.172;11.484;2024-03-02T09:30:40;11.00;;;7.50;;
43664;SDS011;29263;48.172;11.484;2024-03-02T09:33:06;11.07;;;7.63;;
43664;SDS011;29263;48.172;11.484;2024-03-02T09:35:32;11.23;;;7.90;;
43664;SDS011;29263;48.172;11.484;2024-03-02T09:37:57;12.90;;;8.50;;
43664;SDS011;29263;48.172;11.484;2024-03-02T09:40:23;10.80;;;7.57;;
43664;SDS011;29263;48.172;11.484;2024-03-02T09:42:49;11.13;;;7.70;;
43664;SDS011;29263;48.172;11.484;2024-03-02T09:45:22;11.70;;;6.97;;
43664;SDS011;29263;48.172;11.484;2024-03-02T09:47:48;13.07;;;7.13;;
43664;SDS011;29263;48.172;11.484;2024-03-02T09:50:14;14.53;;;7.20;;
43664;SDS011;29263;48.172;11.484;2024-03-02T09:52:42;11.67;;;7.20;;
43664;SDS011;29263;48.172;11.484;2024-03-02T09:55:08;9.10;;;6.57;;
43664;SDS011;29263;48.172;11.484;2024-03-02T09:57:34;12.43;;;7.30;;
43664;SDS011;29263;48.172;11.484;2024-03-02T10:00:00;11.23;;;7.00;;
43664;SDS011;29263;48.172;11.484;2024-03-02T10:02:26;10.90;;;7.28;;
43664;SDS011;29263;48.172;11.484;2024-03-02T10:04:52;11.85;;;6.65;;
43664;SDS011;29263;48.172;11.484;2024-03-02T10:07:18;10.50;;;7.10;;
43664;SDS011;29263;48.172;11.484;2024-03-02T10:09:44;10.57;;;6.07;;
43664;SDS011;29263;48.172;11.484;2024-03-02T10:12:11;8.60;;;5.55;;
43664;SDS011;29263;48.172;11.484;2024-03-02T10:14:38;10.10;;;5.82;;
43664;SDS011;29263;48.172;11.484;2024-03-02T10:17:08;8.98;;;6.28;;
43664;SDS011;29263;48.172;11.484;2024-03-02T10:19:35;9.98;;;6.20;;
43664;SDS011;29263;48.172;11.484;2024-03-02T10:22:02;11.10;;;7.20;;
43664;SDS011;29263;48.172;11.484;2024-03-02T10:24:38;10.27;;;6.75;;
43664;SDS011;29263;48.172;11.484;2024-03-02T10:27:08;8.45;;;5.65;;
43664;SDS011;29263;48.172;11.484;2024-03-02T10:29:41;10.87;;;6.40;;
43664;SDS011;29263;48.172;11.484;2024-03-02T10:32:10;9.70;;;5.63;;
43664;SDS011;29263;48.172;11.484;2024-03-02T10:34:37;8.02;;;5.40;;
43664;SDS011;29263;48.172;11.484;2024-03-02T10:37:05;7.25;;;5.18;;
43664;SDS011;29263;48.172;11.484;2024-03-02T10:39:32;8.15;;;5.82;;
43664;SDS011;29263;48.172;11.484;2024-03-02T10:42:00;8.10;;;5.30;;
43664;SDS011;29263;48.172;11.484;2024-03-02T10:44:28;8.43;;;5.30;;
43664;SDS011;29263;48.172;11.484;2024-03-02T10:46:55;7.70;;;5.57;;
43664;SDS011;29263;48.172;11.484;2024-03-02T10:49:22;8.23;;;5.43;;
43664;SDS011;29263;48.172;11.484;2024-03-02T10:51:49;9.25;;;5.50;;
43664;SDS011;29263;48.172;11.484;2024-03-02T10:54:15;10.80;;;5.82;;
43664;SDS011;29263;48.172;11.484;2024-03-02T10:56:44;8.00;;;4.65;;
43664;SDS011;29263;48.172;11.484;2024-03-02T10:59:16;8.27;;;4.53;;
43664;SDS011;29263;48.172;11.484;2024-03-02T11:01:49;8.27;;;5.22;;
43664;SDS011;29263;48.172;11.484;2024-03-02T11:04:16;9.30;;;4.65;;
43664;SDS011;29263;48.172;11.484;2024-03-02T11:06:54;7.03;;;4.40;;
43664;SDS011;29263;48.172;11.484;2024-03-02T11:09:44;7.70;;;4.65;;
43664;SDS011;29263;48.172;11.484;2024-03-02T11:16:12;8.18;;;5.07;;
43664;SDS011;29263;48.172;11.484;2024-03-02T11:21:56;8.43;;;4.32;;
43664;SDS011;29263;48.172;11.484;2024-03-02T11:24:29;9.27;;;4.72;;
43664;SDS011;29263;48.172;11.484;2024-03-02T11:27:20;10.07;;;4.68;;
43664;SDS011;29263;48.172;11.484;2024-03-02T11:30:05;10.63;;;4.97;;
43664;SDS011;29263;48.172;11.484;2024-03-02T11:32:31;8.65;;;4.68;;
43664;SDS011;29263;48.172;11.484;2024-03-02T11:35:08;9.10;;;5.20;;
43664;SDS011;29263;48.172;11.484;2024-03-02T11:37:37;8.80;;;4.88;;
43664;SDS011;29263;48.172;11.484;2024-03-02T11:40:06;10.90;;;6.00;;
43664;SDS011;29263;48.172;11.484;2024-03-02T11:42:35;8.20;;;4.63;;
43664;SDS011;29263;48.172;11.484;2024-03-02T11:47:33;10.60;;;5.63;;
43664;SDS011;29263;48.172;11.484;2024-03-02T11:50:02;10.70;;;5.90;;
43664;SDS011;29263;48.172;11.484;2024-03-02T11:52:32;10.48;;;6.40;;
43664;SDS011;29263;48.172;11.484;2024-03-02T11:54:59;11.77;;;6.57;;
43664;SDS011;29263;48.172;11.484;2024-03-02T11:57:30;9.77;;;5.68;;
43664;SDS011;29263;48.172;11.484;2024-03-02T12:00:03;8.77;;;5.75;;
43664;SDS011;29263;48.172;11.484;2024-03-02T12:02:33;10.43;;;6.03;;
43664;SDS011;29263;48.172;11.484;2024-03-02T12:05:52;13.45;;;6.57;;
43664;SDS011;29263;48.172;11.484;2024-03-02T12:08:22;12.50;;;6.95;;
43664;SDS011;29263;48.172;11.484;2024-03-02T12:11:00;19.88;;;9.85;;
43664;SDS011;29263;48.172;11.484;2024-03-02T12:13:27;17.13;;;8.65;;
43664;SDS011;29263;48.172;11.484;2024-03-02T12:16:31;15.32;;;8.75;;
43664;SDS011;29263;48.172;11.484;2024-03-02T12:19:02;14.93;;;8.70;;
43664;SDS011;29263;48.172;11.484;2024-03-02T12:21:31;15.45;;;8.80;;
43664;SDS011;29263;48.172;11.484;2024-03-02T12:24:18;16.05;;;9.13;;
43664;SDS011;29263;48.172;11.484;2024-03-02T12:27:07;15.23;;;8.15;;
43664;SDS011;29263;48.172;11.484;2024-03-02T12:29:33;14.90;;;8.68;;
43664;SDS011;29263;48.172;11.484;2024-03-02T12:32:00;11.98;;;7.63;;
43664;SDS011;29263;48.172;11.484;2024-03-02T12:34:47;15.63;;;8.10;;
43664;SDS011;29263;48.172;11.484;2024-03-02T12:37:56;15.90;;;8.30;;
43664;SDS011;29263;48.172;11.484;2024-03-02T12:40:54;19.92;;;8.60;;
43664;SDS011;29263;48.172;11.484;2024-03-02T12:50:19;15.20;;;8.43;;
43664;SDS011;29263;48.172;11.484;2024-03-02T12:52:54;13.75;;;7.50;;
43664;SDS011;29263;48.172;11.484;2024-03-02T12:55:20;12.88;;;7.68;;
43664;SDS011;29263;48.172;11.484;2024-03-02T12:57:53;11.80;;;7.63;;
43664;SDS011;29263;48.172;11.484;2024-03-02T13:03:49;12.30;;;7.60;;
43664;SDS011;29263;48.172;11.484;2024-03-02T13:09:33;17.83;;;8.63;;
43664;SDS011;29263;48.172;11.484;2024-03-02T13:12:20;10.43;;;6.78;;
43664;SDS011;29263;48.172;11.484;2024-03-02T13:14:51;12.45;;;8.15;;
43664;SDS011;29263;48.172;11.484;2024-03-02T13:20:57;12.18;;;7.32;;
43664;SDS011;29263;48.172;11.484;2024-03-02T13:23:26;12.73;;;8.02;;
43664;SDS011;29263;48.172;11.484;2024-03-02T13:25:55;11.10;;;7.70;;
43664;SDS011;29263;48.172;11.484;2024-03-02T13:28:27;16.42;;;9.50;;
43664;SDS011;29263;48.172;11.484;2024-03-02T13:30:58;14.18;;;7.78;;
43664;SDS011;29263;48.172;11.484;2024-03-02T13:33:24;11.52;;;7.55;;
43664;SDS011;29263;48.172;11.484;2024-03-02T13:35:49;13.98;;;8.60;;
43664;SDS011;29263;48.172;11.484;2024-03-02T13:38:22;14.18;;;8.25;;
43664;SDS011;29263;48.172;11.484;2024-03-02T13:40:53;13.05;;;8.65;;
43664;SDS011;29263;48.172;11.484;2024-03-02T13:43:23;12.55;;;8.02;;
43664;SDS011;29263;48.172;11.484;2024-03-02T13:46:28;13.57;;;8.13;;
43664;SDS011;29263;48.172;11.484;2024-03-02T13:49:22;12.73;;;6.75;;
43664;SDS011;29263;48.172;11.484;2024-03-02T13:52:00;12.02;;;6.88;;
43664;SDS011;29263;48.172;11.484;2024-03-02T13:54:28;12.05;;;7.00;;
43664;SDS011;29263;48.172;11.484;2024-03-02T13:56:55;11.50;;;7.25;;
43664;SDS011;29263;48.172;11.484;2024-03-02T13:59:23;13.40;;;7.38;;
43664;SDS011;29263;48.172;11.484;2024-03-02T14:01:50;10.90;;;6.53;;
43664;SDS011;29263;48.172;11.484;2024-03-02T14:04:15;16.55;;;7.85;;
43664;SDS011;29263;48.172;11.484;2024-03-02T14:06:42;14.60;;;7.30;;
43664;SDS011;29263;48.172;11.484;2024-03-02T14:09:43;11.75;;;6.65;;
43664;SDS011;29263;48.172;11.484;2024-03-02T14:12:17;12.50;;;8.25;;
43664;SDS011;29263;48.172;11.484;2024-03-02T14:14:43;14.70;;;8.50;;
43664;SDS011;29263;48.172;11.484;2024-03-02T14:17:08;14.65;;;8.55;;
43664;SDS011;29263;48.172;11.484;2024-03-02T14:19:39;11.82;;;7.22;;
43664;SDS011;29263;48.172;11.484;2024-03-02T14:22:05;13.85;;;8.23;;
43664;SDS011;29263;48.172;11.484;2024-03-02T14:24:30;13.25;;;7.93;;
43664;SDS011;29263;48.172;11.484;2024-03-02T14:26:56;11.68;;;7.13;;
43664;SDS011;29263;48.172;11.484;2024-03-02T14:29:28;12.65;;;6.85;;
43664;SDS011;29263;48.172;11.484;2024-03-02T14:31:53;12.00;;;7.15;;
43664;SDS011;29263;48.172;11.484;2024-03-02T14:34:19;11.27;;;7.35;;
43664;SDS011;29263;48.172;11.484;2024-03-02T14:36:44;13.05;;;6.97;;
43664;SDS011;29263;48.172;11.484;2024-03-02T14:39:10;11.60;;;7.40;;
43664;SDS011;29263;48.172;11.484;2024-03-02T14:41:36;11.13;;;7.70;;
43664;SDS011;29263;48.172;11.484;2024-03-02T14:44:02;9.27;;;6.80;;
43664;SDS011;29263;48.172;11.484;2024-03-02T14:46:28;11.88;;;7.75;;
43664;SDS011;29263;48.172;11.484;2024-03-02T14:48:54;10.15;;;7.60;;
43664;SDS011;29263;48.172;11.484;2024-03-02T14:51:20;11.38;;;6.80;;
43664;SDS011;29263;48.172;11.484;2024-03-02T14:53:45;10.00;;;7.25;;
43664;SDS011;29263;48.172;11.484;2024-03-02T14:56:11;11.70;;;7.47;;
43664;SDS011;29263;48.172;11.484;2024-03-02T14:58:38;11.73;;;8.13;;
43664;SDS011;29263;48.172;11.484;2024-03-02T15:01:04;10.82;;;7.25;;
43664;SDS011;29263;48.172;11.484;2024-03-02T15:03:34;12.00;;;8.35;;